Time,TemperatureF,DewpointF,PressureIn,WindDirection,WindDirectionDegrees,WindSpeedMPH,WindSpeedGustMPH,Humidity,HourlyPrecipIn,Conditions,Clouds,dailyrainin,SoftwareType,DateUTC
2013-02-20 00:05:00,45.0,-99.9,29.85,NW,318,13.0,17.0,-999,-99.99,,,-99.99,,2013-02-20 08:05:00,
2013-02-20 00:11:00,44.0,-99.9,29.85,NW,306,7.0,11.0,-999,-99.99,,,-99.99,,2013-02-20 08:11:00,
2013-02-20 00:22:00,44.0,-99.9,29.86,NW,312,6.0,9.0,-999,-99.99,,,-99.99,,2013-02-20 08:22:00,
2013-02-20 00:32:00,44.0,-99.9,29.86,NW,318,8.0,12.0,-999,-99.99,,,-99.99,,2013-02-20 08:32:00,
2013-02-20 00:42:00,44.0,-99.9,29.86,NW,318,8.0,12.0,-999,-99.99,,,-99.99,,2013-02-20 08:42:00,
2013-02-20 00:52:00,44.0,-99.9,29.87,NW,317,7.0,11.0,-999,-99.99,,,-99.99,,2013-02-20 08:52:00,
2013-02-20 01:02:00,44.0,-99.9,29.87,NW,326,5.0,8.0,-999,-99.99,,,-99.99,,2013-02-20 09:02:00,
2013-02-20 01:11:00,44.0,-99.9,29.87,NNW,328,5.0,7.0,-999,-99.99,,,-99.99,,2013-02-20 09:11:00,
2013-02-20 01:22:00,44.0,-99.9,29.87,NNW,332,5.0,8.0,-999,-99.99,,,-99.99,,2013-02-20 09:22:00,
2013-02-20 01:32:00,44.0,-99.9,29.87,NW,324,6.0,8.0,-999,-99.99,,,-99.99,,2013-02-20 09:32:00,
2013-02-20 01:42:00,44.0,-99.9,29.87,NW,324,6.0,8.0,-999,-99.99,,,-99.99,,2013-02-20 09:42:00,
2013-02-20 01:52:00,44.0,-99.9,29.87,North,359,5.0,8.0,-999,-99.99,,,-99.99,,2013-02-20 09:52:00,
2013-02-20 02:01:00,44.0,-99.9,29.88,North,357,9.0,11.0,-999,-99.99,,,-99.99,,2013-02-20 10:01:00,
2013-02-20 02:12:00,43.0,-99.9,29.89,NNW,342,6.0,11.0,-999,-99.99,,,-99.99,,2013-02-20 10:12:00,
2013-02-20 02:22:00,43.0,-99.9,29.89,NNW,338,5.0,8.0,-999,-99.99,,,-99.99,,2013-02-20 10:22:00,
2013-02-20 02:32:00,44.0,-99.9,29.89,NW,320,9.0,12.0,-999,-99.99,,,-99.99,,2013-02-20 10:32:00,
2013-02-20 02:42:00,44.0,-99.9,29.89,NW,320,9.0,12.0,-999,-99.99,,,-99.99,,2013-02-20 10:42:00,
2013-02-20 02:52:00,44.0,-99.9,29.90,NW,317,9.0,12.0,-999,-99.99,,,-99.99,,2013-02-20 10:52:00,
2013-02-20 03:02:00,44.0,-99.9,29.90,NW,310,6.0,9.0,-999,-99.99,,,-99.99,,2013-02-20 11:02:00,
2013-02-20 03:11:00,44.0,-99.9,29.90,NW,310,6.0,9.0,-999,-99.99,,,-99.99,,2013-02-20 11:11:00,
2013-02-20 03:22:00,44.0,-99.9,29.90,WNW,298,5.0,7.0,-999,-99.99,,,-99.99,,2013-02-20 11:22:00,
2013-02-20 03:32:00,44.0,-99.9,29.90,NNW,330,6.0,10.0,-999,-99.99,,,-99.99,,2013-02-20 11:32:00,
2013-02-20 03:42:00,44.0,-99.9,29.90,North,349,5.0,8.0,-999,-99.99,,,-99.99,,2013-02-20 11:42:00,
2013-02-20 03:52:00,44.0,-99.9,29.90,NW,326,5.0,6.0,-999,-99.99,,,-99.99,,2013-02-20 11:52:00,
2013-02-20 04:02:00,44.0,-99.9,29.91,NW,319,7.0,9.0,-999,-99.99,,,-99.99,,2013-02-20 12:02:00,
2013-02-20 04:12:00,44.0,-99.9,29.91,NW,311,6.0,7.0,-999,-99.99,,,-99.99,,2013-02-20 12:12:00,
2013-02-20 04:22:00,44.0,-99.9,29.91,NW,311,6.0,7.0,-999,-99.99,,,-99.99,,2013-02-20 12:22:00,
2013-02-20 04:32:00,44.0,-99.9,29.91,NW,311,6.0,7.0,-999,-99.99,,,-99.99,,2013-02-20 12:32:00,
2013-02-20 04:42:00,44.0,-99.9,29.91,NW,311,6.0,7.0,-999,-99.99,,,-99.99,,2013-02-20 12:42:00,
2013-02-20 04:53:00,44.0,-99.9,29.91,NW,318,5.0,7.0,-999,-99.99,,,-99.99,,2013-02-20 12:53:00,
2013-02-20 05:02:00,43.0,-99.9,29.92,NNE,19,4.0,6.0,-999,-99.99,,,-99.99,,2013-02-20 13:02:00,
2013-02-20 05:12:00,43.0,-99.9,29.92,NNE,19,4.0,6.0,-999,-99.99,,,-99.99,,2013-02-20 13:12:00,
2013-02-20 05:22:00,43.0,-99.9,29.92,NNE,25,5.0,6.0,-999,-99.99,,,-99.99,,2013-02-20 13:22:00,
2013-02-20 05:32:00,43.0,-99.9,29.92,NNE,29,5.0,6.0,-999,-99.99,,,-99.99,,2013-02-20 13:32:00,
2013-02-20 05:42:00,43.0,-99.9,29.92,NNE,29,5.0,6.0,-999,-99.99,,,-99.99,,2013-02-20 13:42:00,
2013-02-20 05:52:00,43.0,-99.9,29.93,NNE,30,6.0,7.0,-999,-99.99,,,-99.99,,2013-02-20 13:52:00,
2013-02-20 06:01:00,42.0,-99.9,29.93,NE,35,7.0,9.0,-999,-99.99,,,-99.99,,2013-02-20 14:01:00,
2013-02-20 06:11:00,42.0,-99.9,29.93,NE,35,7.0,9.0,-999,-99.99,,,-99.99,,2013-02-20 14:11:00,
2013-02-20 06:22:00,42.0,-99.9,29.93,North,8,4.0,8.0,-999,-99.99,,,-99.99,,2013-02-20 14:22:00,
2013-02-20 06:32:00,42.0,-99.9,29.93,NNE,19,5.0,6.0,-999,-99.99,,,-99.99,,2013-02-20 14:32:00,
2013-02-20 06:42:00,42.0,-99.9,29.93,NNE,19,5.0,6.0,-999,-99.99,,,-99.99,,2013-02-20 14:42:00,
2013-02-20 06:52:00,42.0,-99.9,29.94,NNE,12,4.0,6.0,-999,-99.99,,,-99.99,,2013-02-20 14:52:00,
2013-02-20 07:02:00,42.0,-99.9,29.94,NNE,26,5.0,6.0,-999,-99.99,,,-99.99,,2013-02-20 15:02:00,
2013-02-20 07:12:00,42.0,-99.9,29.94,NE,34,5.0,6.0,-999,-99.99,,,-99.99,,2013-02-20 15:12:00,
2013-02-20 07:22:00,42.0,-99.9,29.95,NE,34,6.0,8.0,-999,-99.99,,,-99.99,,2013-02-20 15:22:00,
2013-02-20 07:32:00,42.0,-99.9,29.95,NE,34,6.0,8.0,-999,-99.99,,,-99.99,,2013-02-20 15:32:00,
2013-02-20 07:42:00,42.0,-99.9,29.96,NNE,20,5.0,6.0,-999,-99.99,,,-99.99,,2013-02-20 15:42:00,
2013-02-20 07:52:00,43.0,-99.9,29.96,NE,44,6.0,7.0,-999,-99.99,,,-99.99,,2013-02-20 15:52:00,
2013-02-20 08:01:00,43.0,-99.9,29.96,NE,44,6.0,7.0,-999,-99.99,,,-99.99,,2013-02-20 16:01:00,
2013-02-20 08:12:00,43.0,-99.9,29.96,NE,44,6.0,7.0,-999,-99.99,,,-99.99,,2013-02-20 16:12:00,
2013-02-20 08:22:00,44.0,-99.9,29.97,NE,39,4.0,6.0,-999,-99.99,,,-99.99,,2013-02-20 16:22:00,
2013-02-20 08:32:00,45.0,-99.9,29.98,NE,39,4.0,5.0,-999,-99.99,,,-99.99,,2013-02-20 16:32:00,
2013-02-20 08:42:00,45.0,-99.9,29.98,NE,36,4.0,5.0,-999,-99.99,,,-99.99,,2013-02-20 16:42:00,
2013-02-20 08:52:00,45.0,-99.9,29.98,NE,36,4.0,5.0,-999,-99.99,,,-99.99,,2013-02-20 16:52:00,
2013-02-20 09:01:00,46.0,-99.9,29.99,NNE,31,5.0,6.0,-999,-99.99,,,-99.99,,2013-02-20 17:01:00,
2013-02-20 09:12:00,46.0,-99.9,29.99,NNE,31,5.0,6.0,-999,-99.99,,,-99.99,,2013-02-20 17:12:00,
2013-02-20 09:21:00,46.0,-99.9,29.99,NE,41,5.0,6.0,-999,-99.99,,,-99.99,,2013-02-20 17:21:00,
2013-02-20 09:32:00,46.0,-99.9,29.99,NE,41,5.0,6.0,-999,-99.99,,,-99.99,,2013-02-20 17:32:00,
2013-02-20 09:42:00,46.0,-99.9,29.99,NE,41,5.0,6.0,-999,-99.99,,,-99.99,,2013-02-20 17:42:00,
2013-02-20 09:52:00,49.0,-99.9,30.00,North,355,8.0,10.0,-999,-99.99,,,-99.99,,2013-02-20 17:52:00,
2013-02-20 10:02:00,50.0,-99.9,30.00,NNW,340,7.0,11.0,-999,-99.99,,,-99.99,,2013-02-20 18:02:00,
2013-02-20 10:11:00,50.0,-99.9,30.00,NNW,340,7.0,11.0,-999,-99.99,,,-99.99,,2013-02-20 18:11:00,
2013-02-20 10:22:00,50.0,-99.9,30.00,NNW,340,7.0,11.0,-999,-99.99,,,-99.99,,2013-02-20 18:22:00,
2013-02-20 10:32:00,53.0,-99.9,30.01,WNW,284,1.0,7.0,-999,-99.99,,,-99.99,,2013-02-20 18:32:00,
2013-02-20 10:42:00,53.0,-99.9,30.01,WNW,284,1.0,7.0,-999,-99.99,,,-99.99,,2013-02-20 18:42:00,
2013-02-20 10:52:00,53.0,-99.9,30.01,WNW,284,1.0,7.0,-999,-99.99,,,-99.99,,2013-02-20 18:52:00,
2013-02-20 11:02:00,50.0,-99.9,30.01,SW,222,3.0,6.0,-999,-99.99,,,-99.99,,2013-02-20 19:02:00,
2013-02-20 11:12:00,49.0,-99.9,30.01,SW,220,6.0,8.0,-999,-99.99,,,-99.99,,2013-02-20 19:12:00,
2013-02-20 11:21:00,49.0,-99.9,30.01,SW,220,6.0,8.0,-999,-99.99,,,-99.99,,2013-02-20 19:21:00,
2013-02-20 11:32:00,49.0,-99.9,30.01,SW,220,6.0,8.0,-999,-99.99,,,-99.99,,2013-02-20 19:32:00,
2013-02-20 11:42:00,49.0,-99.9,30.01,SW,220,6.0,8.0,-999,-99.99,,,-99.99,,2013-02-20 19:42:00,
2013-02-20 11:52:00,51.0,-99.9,30.01,SW,233,5.0,6.0,-999,-99.99,,,-99.99,,2013-02-20 19:52:00,
2013-02-20 12:01:00,51.0,-99.9,30.01,SW,233,5.0,6.0,-999,-99.99,,,-99.99,,2013-02-20 20:01:00,
2013-02-20 12:11:00,51.0,-99.9,30.01,SW,233,5.0,6.0,-999,-99.99,,,-99.99,,2013-02-20 20:11:00,
2013-02-20 12:21:00,51.0,-99.9,30.01,SW,233,5.0,6.0,-999,-99.99,,,-99.99,,2013-02-20 20:21:00,
2013-02-20 12:31:00,51.0,-99.9,30.00,South,187,7.0,9.0,-999,-99.99,,,-99.99,,2013-02-20 20:31:00,
2013-02-20 12:41:00,51.0,-99.9,30.00,South,187,7.0,9.0,-999,-99.99,,,-99.99,,2013-02-20 20:41:00,
2013-02-20 12:52:00,52.0,-99.9,30.00,South,183,7.0,9.0,-999,-99.99,,,-99.99,,2013-02-20 20:52:00,
2013-02-20 13:01:00,52.0,-99.9,30.00,South,186,7.0,10.0,-999,-99.99,,,-99.99,,2013-02-20 21:01:00,
2013-02-20 13:11:00,52.0,-99.9,29.99,South,185,9.0,11.0,-999,-99.99,,,-99.99,,2013-02-20 21:11:00,
2013-02-20 13:21:00,54.0,-99.9,29.99,South,187,7.0,8.0,-999,-99.99,,,-99.99,,2013-02-20 21:21:00,
2013-02-20 13:32:00,54.0,-99.9,29.99,South,187,7.0,8.0,-999,-99.99,,,-99.99,,2013-02-20 21:32:00,
2013-02-20 13:42:00,54.0,-99.9,29.99,South,187,7.0,8.0,-999,-99.99,,,-99.99,,2013-02-20 21:42:00,
2013-02-20 13:52:00,55.0,-99.9,29.98,South,190,6.0,8.0,-999,-99.99,,,-99.99,,2013-02-20 21:52:00,
2013-02-20 14:02:00,55.0,-99.9,29.98,South,186,7.0,9.0,-999,-99.99,,,-99.99,,2013-02-20 22:02:00,
2013-02-20 14:11:00,55.0,-99.9,29.98,South,191,9.0,12.0,-999,-99.99,,,-99.99,,2013-02-20 22:11:00,
2013-02-20 14:21:00,55.0,-99.9,29.98,South,185,9.0,11.0,-999,-99.99,,,-99.99,,2013-02-20 22:21:00,
2013-02-20 14:32:00,55.0,-99.9,29.98,South,185,9.0,11.0,-999,-99.99,,,-99.99,,2013-02-20 22:32:00,
2013-02-20 14:43:00,55.0,-99.9,29.98,South,185,9.0,11.0,-999,-99.99,,,-99.99,,2013-02-20 22:43:00,
2013-02-20 14:52:00,55.0,-99.9,29.98,South,185,9.0,11.0,-999,-99.99,,,-99.99,,2013-02-20 22:52:00,
2013-02-20 15:01:00,57.0,-99.9,29.97,WSW,246,5.0,6.0,-999,-99.99,,,-99.99,,2013-02-20 23:01:00,
2013-02-20 15:12:00,57.0,-99.9,29.97,WSW,246,5.0,6.0,-999,-99.99,,,-99.99,,2013-02-20 23:12:00,
2013-02-20 15:22:00,57.0,-99.9,29.97,West,262,8.0,10.0,-999,-99.99,,,-99.99,,2013-02-20 23:22:00,
2013-02-20 15:32:00,57.0,-99.9,29.97,West,262,8.0,10.0,-999,-99.99,,,-99.99,,2013-02-20 23:32:00,
2013-02-20 15:43:00,57.0,-99.9,29.97,West,262,8.0,10.0,-999,-99.99,,,-99.99,,2013-02-20 23:43:00,
2013-02-20 15:53:00,57.0,-99.9,29.97,West,262,8.0,10.0,-999,-99.99,,,-99.99,,2013-02-20 23:53:00,
2013-02-20 16:03:00,58.0,-99.9,29.98,West,261,5.0,7.0,-999,-99.99,,,-99.99,,2013-02-21 00:03:00,
2013-02-20 16:11:00,58.0,-99.9,29.98,West,261,5.0,7.0,-999,-99.99,,,-99.99,,2013-02-21 00:11:00,
2013-02-20 16:22:00,58.0,-99.9,29.98,WNW,291,7.0,11.0,-999,-99.99,,,-99.99,,2013-02-21 00:22:00,
2013-02-20 16:32:00,59.0,-99.9,29.98,WNW,289,9.0,13.0,-999,-99.99,,,-99.99,,2013-02-21 00:32:00,
2013-02-20 16:42:00,59.0,-99.9,29.98,WNW,289,9.0,13.0,-999,-99.99,,,-99.99,,2013-02-21 00:42:00,
2013-02-20 16:52:00,58.0,-99.9,29.98,WNW,299,13.0,19.0,-999,-99.99,,,-99.99,,2013-02-21 00:52:00,
2013-02-20 17:01:00,57.0,-99.9,29.98,WNW,298,13.0,18.0,-999,-99.99,,,-99.99,,2013-02-21 01:01:00,
2013-02-20 17:12:00,57.0,-99.9,29.98,WNW,298,13.0,18.0,-999,-99.99,,,-99.99,,2013-02-21 01:12:00,
2013-02-20 17:22:00,57.0,-99.9,29.98,WNW,298,13.0,18.0,-999,-99.99,,,-99.99,,2013-02-21 01:22:00,
2013-02-20 17:32:00,57.0,-99.9,29.98,WNW,298,13.0,18.0,-999,-99.99,,,-99.99,,2013-02-21 01:32:00,
2013-02-20 17:52:00,54.0,-99.9,29.98,WNW,286,13.0,16.0,-999,-99.99,,,-99.99,,2013-02-21 01:52:00,
2013-02-20 18:02:00,54.0,-99.9,29.98,WNW,286,13.0,16.0,-999,-99.99,,,-99.99,,2013-02-21 02:02:00,
2013-02-20 18:11:00,53.0,-99.9,29.99,WNW,282,12.0,17.0,-999,-99.99,,,-99.99,,2013-02-21 02:11:00,
2013-02-20 18:22:00,53.0,-99.9,30.00,WNW,290,13.0,18.0,-999,-99.99,,,-99.99,,2013-02-21 02:22:00,
2013-02-20 18:32:00,53.0,-99.9,30.00,WNW,284,11.0,16.0,-999,-99.99,,,-99.99,,2013-02-21 02:32:00,
2013-02-20 18:42:00,53.0,-99.9,30.00,WNW,284,11.0,16.0,-999,-99.99,,,-99.99,,2013-02-21 02:42:00,
2013-02-20 18:52:00,53.0,-99.9,30.00,WNW,284,11.0,16.0,-999,-99.99,,,-99.99,,2013-02-21 02:52:00,
2013-02-20 19:02:00,52.0,-99.9,30.00,WNW,289,12.0,16.0,-999,-99.99,,,-99.99,,2013-02-21 03:02:00,
2013-02-20 19:12:00,52.0,-99.9,30.00,WNW,289,12.0,16.0,-999,-99.99,,,-99.99,,2013-02-21 03:12:00,
2013-02-20 19:22:00,52.0,-99.9,30.01,WNW,294,13.0,18.0,-999,-99.99,,,-99.99,,2013-02-21 03:22:00,
2013-02-20 19:32:00,52.0,-99.9,30.01,WNW,296,13.0,17.0,-999,-99.99,,,-99.99,,2013-02-21 03:32:00,
2013-02-20 19:42:00,52.0,-99.9,30.01,WNW,299,13.0,17.0,-999,-99.99,,,-99.99,,2013-02-21 03:42:00,
2013-02-20 19:52:00,52.0,-99.9,30.02,WNW,296,14.0,19.0,-999,-99.99,,,-99.99,,2013-02-21 03:52:00,
2013-02-20 20:01:00,52.0,-99.9,30.03,WNW,303,12.0,16.0,-999,-99.99,,,-99.99,,2013-02-21 04:01:00,
2013-02-20 20:11:00,52.0,-99.9,30.03,WNW,303,12.0,16.0,-999,-99.99,,,-99.99,,2013-02-21 04:11:00,
2013-02-20 20:22:00,51.0,-99.9,30.03,WNW,294,11.0,14.0,-999,-99.99,,,-99.99,,2013-02-21 04:22:00,
2013-02-20 20:32:00,51.0,-99.9,30.04,WNW,298,11.0,14.0,-999,-99.99,,,-99.99,,2013-02-21 04:32:00,
2013-02-20 20:42:00,51.0,-99.9,30.04,WNW,300,12.0,18.0,-999,-99.99,,,-99.99,,2013-02-21 04:42:00,
2013-02-20 20:52:00,51.0,-99.9,30.04,NW,305,11.0,17.0,-999,-99.99,,,-99.99,,2013-02-21 04:52:00,
2013-02-20 21:03:00,51.0,-99.9,30.04,NW,305,11.0,17.0,-999,-99.99,,,-99.99,,2013-02-21 05:03:00,
2013-02-20 21:12:00,51.0,-99.9,30.04,NW,304,10.0,16.0,-999,-99.99,,,-99.99,,2013-02-21 05:12:00,
2013-02-20 21:22:00,51.0,-99.9,30.04,NW,304,11.0,13.0,-999,-99.99,,,-99.99,,2013-02-21 05:22:00,
2013-02-20 21:37:00,51.0,-99.9,30.04,NW,304,11.0,13.0,-999,-99.99,,,-99.99,,2013-02-21 05:37:00,
2013-02-20 21:47:00,51.0,-99.9,30.05,WNW,300,6.0,10.0,-999,-99.99,,,-99.99,,2013-02-21 05:47:00,
2013-02-20 22:01:00,51.0,-99.9,30.06,WNW,303,8.0,13.0,-999,-99.99,,,-99.99,,2013-02-21 06:01:00,
2013-02-20 22:11:00,51.0,-99.9,30.06,WNW,301,10.0,14.0,-999,-99.99,,,-99.99,,2013-02-21 06:11:00,
2013-02-20 22:21:00,51.0,-99.9,30.06,WNW,301,10.0,14.0,-999,-99.99,,,-99.99,,2013-02-21 06:21:00,
2013-02-20 22:31:00,51.0,-99.9,30.06,WNW,301,10.0,14.0,-999,-99.99,,,-99.99,,2013-02-21 06:31:00,
2013-02-20 22:42:00,50.0,-99.9,30.06,WNW,300,14.0,18.0,-999,-99.99,,,-99.99,,2013-02-21 06:42:00,
2013-02-20 22:52:00,50.0,-99.9,30.06,WNW,300,14.0,18.0,-999,-99.99,,,-99.99,,2013-02-21 06:52:00,
2013-02-20 23:01:00,50.0,-99.9,30.06,WNW,300,14.0,18.0,-999,-99.99,,,-99.99,,2013-02-21 07:01:00,
2013-02-20 23:11:00,50.0,-99.9,30.06,WNW,300,14.0,18.0,-999,-99.99,,,-99.99,,2013-02-21 07:11:00,
2013-02-20 23:22:00,50.0,-99.9,30.06,WNW,300,14.0,18.0,-999,-99.99,,,-99.99,,2013-02-21 07:22:00,
2013-02-20 23:32:00,49.0,-99.9,30.06,WNW,301,10.0,14.0,-999,-99.99,,,-99.99,,2013-02-21 07:32:00,
2013-02-20 23:42:00,49.0,-99.9,30.06,WNW,296,11.0,13.0,-999,-99.99,,,-99.99,,2013-02-21 07:42:00,
2013-02-20 23:52:00,49.0,-99.9,30.06,WNW,296,11.0,13.0,-999,-99.99,,,-99.99,,2013-02-21 07:52:00,